Time;durP1;ratioP1;P1;durP2;ratioP2;P2;SDS_P1;SDS_P2;PMS_P1;PMS_P2;Temp;Humidity;BMP_temperature;BMP_pressure;BME280_temperature;BME280_humidity;BME280_pressure;Samples;Min_cycle;Max_cycle;Signal;HPM_P1;HPM_P2
2024/01/08 00:01:01;;;;;;;8.32;2.15;;;3.00;72.40;;;;;;6277326;28;20053;-89
2024/01/08 00:04:03;;;;;;;8.00;1.83;;;3.00;71.90;;;;;;6240938;28;20115;-88
2024/01/08 00:07:08;;;;;;;7.35;2.00;;;3.10;70.10;;;;;;6281638;28;20052;-88
2024/01/08 00:10:10;;;;;;;7.80;2.22;;;3.00;65.20;;;;;;6285255;28;20049;-89
2024/01/08 00:13:11;;;;;;;8.20;2.00;;;3.00;68.10;;;;;;6284235;28;20064;-88
2024/01/08 00:16:13;;;;;;;9.43;2.10;;;3.00;61.10;;;;;;6279567;28;20056;-88
2024/01/08 00:19:19;;;;;;;5.90;1.98;;;3.00;55.70;;;;;;6247857;28;20063;-89
2024/01/08 00:22:20;;;;;;;7.45;2.00;;;3.00;57.50;;;;;;6300166;28;20049;-88
2024/01/08 00:25:22;;;;;;;10.30;2.10;;;3.00;57.00;;;;;;6264416;28;20112;-88
2024/01/08 00:28:26;;;;;;;8.07;2.10;;;2.90;51.40;;;;;;6254783;28;20049;-88
2024/01/08 00:31:27;;;;;;;6.25;1.80;;;2.80;55.90;;;;;;6285845;28;20041;-88
2024/01/08 00:34:29;;;;;;;6.78;1.70;;;2.80;60.90;;;;;;6285093;28;20052;-87
2024/01/08 00:37:33;;;;;;;6.53;2.22;;;2.80;57.70;;;;;;6278213;28;20099;-89
2024/01/08 00:40:34;;;;;;;4.63;1.70;;;2.70;60.90;;;;;;6277861;28;20055;-88
2024/01/08 00:43:36;;;;;;;8.48;2.15;;;2.70;61.40;;;;;;6281434;28;20104;-89
2024/01/08 00:46:38;;;;;;;6.47;1.70;;;2.70;63.80;;;;;;6252519;28;20488;-88
2024/01/08 00:49:40;;;;;;;6.18;1.60;;;2.80;61.70;;;;;;6275584;28;20488;-86
2024/01/08 00:52:41;;;;;;;6.07;1.70;;;2.70;57.50;;;;;;6292665;28;20126;-88
2024/01/08 00:55:43;;;;;;;9.40;1.80;;;2.70;59.40;;;;;;6291877;28;20048;-90
2024/01/08 00:58:45;;;;;;;6.95;1.70;;;2.70;58.40;;;;;;6273312;28;20489;-87
2024/01/08 01:01:46;;;;;;;6.18;1.60;;;2.70;54.60;;;;;;6277876;28;20059;-87
2024/01/08 01:04:48;;;;;;;6.45;1.60;;;2.70;50.30;;;;;;6289260;28;20052;-86
2024/01/08 01:07:50;;;;;;;8.05;1.40;;;2.70;50.70;;;;;;6274947;28;20409;-90
2024/01/08 01:10:52;;;;;;;6.57;1.60;;;2.70;51.90;;;;;;6275757;28;20063;-85
2024/01/08 01:13:53;;;;;;;10.40;1.60;;;2.80;51.00;;;;;;6274164;28;20515;-87
2024/01/08 01:16:55;;;;;;;7.60;1.63;;;2.80;49.50;;;;;;6258109;28;20049;-87
2024/01/08 01:19:57;;;;;;;7.95;1.75;;;2.70;44.40;;;;;;6272160;28;20053;-89
2024/01/08 01:22:59;;;;;;;7.45;1.52;;;2.70;37.80;;;;;;6274518;28;20139;-89
2024/01/08 01:26:00;;;;;;;7.72;1.65;;;2.80;45.80;;;;;;6273605;28;20542;-90
2024/01/08 01:29:02;;;;;;;7.00;1.52;;;2.90;37.40;;;;;;6265797;28;20526;-89
2024/01/08 01:32:04;;;;;;;5.97;1.58;;;2.90;37.70;;;;;;6280912;28;20141;-89
2024/01/08 01:35:06;;;;;;;4.75;1.40;;;2.90;36.00;;;;;;6272805;28;20049;-87
2024/01/08 01:38:08;;;;;;;6.85;1.48;;;2.90;34.30;;;;;;6274138;28;20048;-90
2024/01/08 01:41:11;;;;;;;8.30;1.52;;;2.90;37.20;;;;;;6248323;28;20464;-89
2024/01/08 01:44:13;;;;;;;7.65;1.73;;;2.90;35.90;;;;;;6271927;28;20053;-89
2024/01/08 01:47:15;;;;;;;4.13;1.30;;;2.80;32.70;;;;;;6281550;28;20113;-88
2024/01/08 01:50:17;;;;;;;6.65;1.35;;;2.90;35.50;;;;;;6276088;28;20488;-90
2024/01/08 01:53:18;;;;;;;6.85;1.50;;;2.90;30.20;;;;;;6290488;28;20060;-86
2024/01/08 01:56:20;;;;;;;5.60;1.33;;;2.90;32.00;;;;;;6256068;28;20420;-89
2024/01/08 01:59:22;;;;;;;7.13;1.50;;;2.90;32.80;;;;;;6272268;28;20203;-89
2024/01/08 02:02:27;;;;;;;6.80;1.45;;;2.90;26.30;;;;;;6273381;28;20059;-90
2024/01/08 02:05:29;;;;;;;6.30;1.58;;;2.90;31.50;;;;;;6281544;28;20518;-88
2024/01/08 02:08:31;;;;;;;5.03;1.50;;;2.90;27.20;;;;;;6279652;28;20064;-88
2024/01/08 02:11:33;;;;;;;6.15;1.30;;;2.90;26.80;;;;;;6271880;28;20067;-89
2024/01/08 02:14:34;;;;;;;5.28;1.40;;;2.90;25.30;;;;;;6271297;28;20052;-88
2024/01/08 02:17:38;;;;;;;9.88;1.52;;;3.00;25.80;;;;;;6272579;28;20053;-89
2024/01/08 02:20:40;;;;;;;6.40;1.33;;;3.00;27.00;;;;;;6273275;28;20056;-87
2024/01/08 02:23:41;;;;;;;5.25;1.30;;;3.00;24.70;;;;;;6272190;28;20053;-88
2024/01/08 02:26:43;;;;;;;5.82;1.40;;;3.00;20.90;;;;;;6278226;28;20121;-88
2024/01/08 02:29:44;;;;;;;8.45;1.58;;;3.00;25.50;;;;;;6261259;28;20078;-89
2024/01/08 02:32:47;;;;;;;4.70;1.50;;;3.00;22.90;;;;;;6274215;28;20057;-89
2024/01/08 02:35:48;;;;;;;5.68;1.38;;;3.00;28.50;;;;;;6272010;28;20080;-88
2024/01/08 02:38:50;;;;;;;5.47;1.48;;;3.00;22.90;;;;;;6298162;28;20057;-88
2024/01/08 02:41:52;;;;;;;3.67;1.17;;;3.00;21.60;;;;;;6274610;28;20497;-91
2024/01/08 02:44:54;;;;;;;5.75;1.27;;;3.10;15.70;;;;;;6281054;28;20400;-89
2024/01/08 02:47:55;;;;;;;3.92;1.38;;;3.10;14.70;;;;;;6274921;28;20053;-90
2024/01/08 02:50:57;;;;;;;5.38;1.55;;;3.10;11.90;;;;;;6297553;28;20059;-90
2024/01/08 02:53:59;;;;;;;6.18;1.23;;;3.10;13.00;;;;;;6256362;28;20048;-90
2024/01/08 02:57:03;;;;;;;4.72;1.00;;;3.00;10.10;;;;;;6274644;28;20059;-90
2024/01/08 03:00:05;;;;;;;5.53;1.10;;;3.00;13.80;;;;;;6280993;28;20058;-91
2024/01/08 03:03:06;;;;;;;4.90;1.20;;;3.00;14.40;;;;;;6296970;28;20064;-89
2024/01/08 03:06:08;;;;;;;5.15;1.02;;;3.00;11.50;;;;;;6272251;28;20049;-89
2024/01/08 03:09:10;;;;;;;5.80;1.08;;;3.00;12.50;;;;;;6271927;28;20063;-88
2024/01/08 03:12:11;;;;;;;4.97;1.20;;;3.00;13.10;;;;;;6268848;28;20622;-88
2024/01/08 03:15:13;;;;;;;4.00;1.40;;;3.00;14.30;;;;;;6295191;28;20067;-88
2024/01/08 03:18:15;;;;;;;4.28;1.05;;;3.10;14.80;;;;;;6270227;28;20534;-89
2024/01/08 03:21:17;;;;;;;5.45;1.48;;;3.00;14.40;;;;;;6272580;28;20336;-88
2024/01/08 03:24:18;;;;;;;5.13;1.20;;;3.00;16.40;;;;;;6273219;28;20056;-89
2024/01/08 03:27:20;;;;;;;5.65;1.17;;;3.10;14.20;;;;;;6274153;28;20061;-90
2024/01/08 03:30:22;;;;;;;6.32;1.15;;;3.00;15.50;;;;;;6272415;28;20411;-87
2024/01/08 03:33:23;;;;;;;10.45;1.52;;;3.00;13.90;;;;;;6279573;28;20057;-88
2024/01/08 03:36:25;;;;;;;5.18;1.30;;;3.10;14.20;;;;;;6274045;28;20045;-90
2024/01/08 03:39:26;;;;;;;4.20;1.10;;;3.10;15.30;;;;;;6275700;28;20059;-87
2024/01/08 03:42:28;;;;;;;4.35;1.23;;;3.00;15.10;;;;;;6280468;28;20049;-89
2024/01/08 03:45:30;;;;;;;10.07;1.50;;;3.10;15.40;;;;;;6279061;28;20503;-90
2024/01/08 03:48:31;;;;;;;4.97;1.40;;;3.10;12.90;;;;;;6273863;28;20056;-87
2024/01/08 03:51:34;;;;;;;5.03;1.45;;;3.10;8.70;;;;;;6282681;28;20048;-88
2024/01/08 03:54:36;;;;;;;7.70;1.40;;;3.10;12.50;;;;;;6278645;28;20053;-90
2024/01/08 03:57:37;;;;;;;4.93;1.40;;;3.20;12.40;;;;;;6279701;28;20488;-90
2024/01/08 04:00:39;;;;;;;4.22;1.40;;;3.10;13.70;;;;;;6293463;28;20063;-88
2024/01/08 04:03:41;;;;;;;8.60;1.42;;;3.10;14.40;;;;;;6274797;28;20049;-87
2024/01/08 04:06:43;;;;;;;4.75;1.20;;;3.10;14.30;;;;;;6272828;28;20064;-87
2024/01/08 04:09:44;;;;;;;6.82;1.70;;;3.20;14.20;;;;;;6282257;28;20059;-90
2024/01/08 04:12:46;;;;;;;5.72;1.38;;;3.10;12.80;;;;;;6289702;28;20112;-87
2024/01/08 04:15:47;;;;;;;6.57;1.63;;;3.20;12.50;;;;;;6272905;28;20044;-88
2024/01/08 04:18:49;;;;;;;6.97;1.30;;;3.20;10.40;;;;;;6273380;28;20048;-88
2024/01/08 04:21:51;;;;;;;4.82;1.60;;;3.10;12.20;;;;;;6269330;28;20060;-87
2024/01/08 04:24:53;;;;;;;9.05;1.75;;;3.10;12.50;;;;;;6259397;28;20052;-85
2024/01/08 04:27:55;;;;;;;5.28;1.38;;;3.20;9.90;;;;;;6276533;28;20048;-87
2024/01/08 04:30:56;;;;;;;5.85;1.35;;;3.20;1.40;;;;;;6273041;28;20424;-85
2024/01/08 04:33:58;;;;;;;6.15;1.40;;;3.20;3.40;;;;;;6280815;28;20048;-88
2024/01/08 04:37:00;;;;;;;5.55;1.20;;;3.20;3.20;;;;;;6275041;28;20056;-86
2024/01/08 04:40:02;;;;;;;5.85;1.35;;;3.20;3.40;;;;;;6274691;28;20057;-86
2024/01/08 04:43:04;;;;;;;4.43;1.30;;;3.20;3.30;;;;;;6278105;28;20087;-88
2024/01/08 04:46:06;;;;;;;9.77;1.80;;;3.30;3.40;;;;;;6291715;28;20404;-89
2024/01/08 04:49:08;;;;;;;6.75;1.45;;;3.20;3.90;;;;;;6274577;28;20056;-88
2024/01/08 04:52:09;;;;;;;4.00;1.20;;;3.30;3.50;;;;;;6275042;28;20087;-87
2024/01/08 04:55:12;;;;;;;3.78;1.10;;;3.30;6.70;;;;;;6275951;28;20529;-89
2024/01/08 04:58:14;;;;;;;5.60;1.65;;;3.20;3.40;;;;;;6284797;28;20045;-82
2024/01/08 05:01:16;;;;;;;4.45;1.33;;;3.20;6.20;;;;;;6274736;28;20067;-86
2024/01/08 05:04:18;;;;;;;5.50;1.50;;;3.20;3.30;;;;;;6249657;28;20152;-86
2024/01/08 05:07:20;;;;;;;7.00;1.35;;;3.20;3.40;;;;;;6273631;28;20059;-86
2024/01/08 05:10:21;;;;;;;3.88;1.30;;;3.30;3.40;;;;;;6290576;28;20056;-86
2024/01/08 05:13:23;;;;;;;6.25;1.40;;;3.30;7.40;;;;;;6253531;28;20108;-88
2024/01/08 05:16:25;;;;;;;6.50;1.40;;;3.20;3.40;;;;;;6273966;28;20057;-88
2024/01/08 05:19:26;;;;;;;6.60;1.40;;;3.20;8.90;;;;;;6293266;28;20064;-89
2024/01/08 05:22:28;;;;;;;11.30;1.52;;;3.20;5.30;;;;;;6280856;28;20302;-86
2024/01/08 05:25:30;;;;;;;3.75;1.38;;;3.20;1.70;;;;;;6257262;28;20439;-86
2024/01/08 05:28:31;;;;;;;6.70;1.40;;;3.20;1.10;;;;;;6269147;28;20041;-87
2024/01/08 05:31:33;;;;;;;7.47;1.33;;;3.20;1.90;;;;;;6296114;28;20586;-85
2024/01/08 05:34:35;;;;;;;5.43;1.48;;;3.10;3.30;;;;;;6272120;28;20139;-85
2024/01/08 05:37:36;;;;;;;5.47;1.42;;;3.10;4.10;;;;;;6294487;28;20125;-86
2024/01/08 05:40:38;;;;;;;4.63;1.27;;;3.10;3.30;;;;;;6280018;28;20059;-85
2024/01/08 05:43:40;;;;;;;3.67;1.27;;;3.10;5.00;;;;;;6268348;28;20057;-85
2024/01/08 05:46:41;;;;;;;3.95;1.33;;;3.10;6.80;;;;;;6272176;28;20602;-86
2024/01/08 05:49:43;;;;;;;5.68;1.40;;;3.00;5.10;;;;;;6272247;28;20057;-90
2024/01/08 05:52:45;;;;;;;5.00;1.15;;;3.00;4.60;;;;;;6295024;28;20056;-86
2024/01/08 05:55:46;;;;;;;5.25;1.50;;;3.00;4.10;;;;;;6273380;28;20059;-87
2024/01/08 05:58:48;;;;;;;3.65;1.10;;;2.90;3.20;;;;;;6268009;28;20071;-86
2024/01/08 06:01:49;;;;;;;4.38;1.15;;;2.90;1.00;;;;;;6273719;28;20428;-87
2024/01/08 06:04:51;;;;;;;6.63;1.30;;;2.90;1.00;;;;;;6294838;28;20052;-86
2024/01/08 06:07:53;;;;;;;5.88;1.20;;;2.90;1.00;;;;;;6273293;28;20186;-87
2024/01/08 06:10:55;;;;;;;4.50;1.00;;;2.80;1.00;;;;;;6274171;28;20136;-87
2024/01/08 06:13:57;;;;;;;6.32;1.40;;;2.90;1.00;;;;;;6268748;28;20089;-86
2024/01/08 06:16:58;;;;;;;4.38;1.27;;;2.90;1.00;;;;;;6279964;28;20053;-86
2024/01/08 06:20:00;;;;;;;5.10;1.30;;;2.90;1.00;;;;;;6274341;28;20140;-86
2024/01/08 06:23:02;;;;;;;6.15;1.17;;;3.00;1.00;;;;;;6293459;28;20052;-87
2024/01/08 06:26:03;;;;;;;4.72;1.30;;;2.90;1.00;;;;;;6284594;28;20148;-89
2024/01/08 06:29:05;;;;;;;6.57;1.30;;;2.90;1.00;;;;;;6257504;28;20131;-86
2024/01/08 06:32:07;;;;;;;5.03;1.05;;;3.00;1.00;;;;;;6264120;28;20078;-87
2024/01/08 06:35:08;;;;;;;3.78;1.10;;;3.00;1.00;;;;;;6274830;28;20060;-92
2024/01/08 06:38:10;;;;;;;5.18;1.40;;;2.90;1.00;;;;;;6284360;28;20265;-89
2024/01/08 06:41:12;;;;;;;4.38;1.10;;;2.90;1.00;;;;;;6286592;28;20173;-87
2024/01/08 06:44:14;;;;;;;4.65;1.25;;;2.80;1.00;;;;;;6271764;28;20095;-87
2024/01/08 06:47:16;;;;;;;4.60;1.10;;;2.80;1.00;;;;;;6272847;28;20409;-85
2024/01/08 06:50:17;;;;;;;5.65;1.30;;;2.70;1.00;;;;;;6272949;28;20496;-86
2024/01/08 06:53:19;;;;;;;5.05;1.33;;;2.60;1.00;;;;;;6276514;28;20049;-90
2024/01/08 06:56:21;;;;;;;5.15;1.88;;;2.60;1.00;;;;;;6275297;28;20053;-86
2024/01/08 06:59:22;;;;;;;3.35;1.13;;;2.70;1.00;;;;;;6275801;28;20079;-88
2024/01/08 07:02:24;;;;;;;6.43;1.40;;;2.70;1.00;;;;;;6276244;28;20514;-86
2024/01/08 07:05:26;;;;;;;3.83;1.10;;;2.80;1.00;;;;;;6276560;28;20502;-86
2024/01/08 07:08:28;;;;;;;10.63;1.50;;;2.90;1.00;;;;;;6276645;28;20053;-86
2024/01/08 07:11:30;;;;;;;3.17;1.17;;;2.90;1.00;;;;;;6281379;28;20059;-87
2024/01/08 07:14:32;;;;;;;8.23;1.40;;;3.00;1.00;;;;;;6274641;28;20053;-88
2024/01/08 07:17:34;;;;;;;3.65;1.20;;;3.00;1.00;;;;;;6273424;28;20053;-86
2024/01/08 07:20:37;;;;;;;5.65;1.25;;;3.10;1.00;;;;;;6275300;28;20053;-84
2024/01/08 07:23:38;;;;;;;5.03;0.95;;;3.10;1.00;;;;;;6279632;28;20094;-85
2024/01/08 07:26:40;;;;;;;4.63;1.13;;;3.10;1.00;;;;;;6277191;28;20059;-86
2024/01/08 07:29:42;;;;;;;3.90;1.17;;;3.10;1.00;;;;;;6274535;28;20059;-82
2024/01/08 07:32:43;;;;;;;5.88;1.20;;;3.10;1.00;;;;;;6275441;28;20112;-85
2024/01/08 07:35:45;;;;;;;6.22;1.13;;;3.10;1.00;;;;;;6278944;28;20045;-84
2024/01/08 07:38:47;;;;;;;6.20;1.17;;;3.10;1.00;;;;;;6282905;28;20056;-84
2024/01/08 07:41:49;;;;;;;9.73;1.35;;;3.20;1.00;;;;;;6282761;28;20056;-86
2024/01/08 07:44:51;;;;;;;4.00;1.30;;;3.20;1.00;;;;;;6272662;28;20135;-84
2024/01/08 07:47:53;;;;;;;5.10;1.27;;;3.20;1.00;;;;;;6282033;28;20134;-86
2024/01/08 07:50:55;;;;;;;2.95;0.98;;;3.20;1.00;;;;;;6277659;28;20056;-84
2024/01/08 07:53:57;;;;;;;3.38;1.10;;;3.20;1.00;;;;;;6287442;28;20159;-85
2024/01/08 07:56:58;;;;;;;5.38;1.25;;;3.30;1.00;;;;;;6276589;28;20060;-85
2024/01/08 08:00:05;;;;;;;4.13;1.15;;;3.20;1.00;;;;;;6299064;28;20060;-84
2024/01/08 08:03:07;;;;;;;6.07;1.35;;;3.20;1.00;;;;;;6272706;28;20053;-84
2024/01/08 08:06:08;;;;;;;4.10;1.25;;;3.20;1.00;;;;;;6272003;28;20055;-86
2024/01/08 08:09:10;;;;;;;3.92;1.17;;;3.20;1.00;;;;;;6270623;28;20056;-82
2024/01/08 08:12:12;;;;;;;8.23;1.73;;;3.20;1.00;;;;;;6270843;28;20175;-83
2024/01/08 08:15:13;;;;;;;5.00;1.10;;;3.20;1.00;;;;;;6261965;28;20057;-84
2024/01/08 08:18:15;;;;;;;7.38;1.23;;;3.20;1.00;;;;;;6272415;28;20056;-84
2024/01/08 08:21:17;;;;;;;5.63;1.25;;;3.30;1.00;;;;;;6276878;28;20140;-91
2024/01/08 08:24:19;;;;;;;3.88;1.02;;;3.20;1.00;;;;;;6273647;28;20053;-88
2024/01/08 08:27:22;;;;;;;4.25;1.02;;;3.20;1.00;;;;;;6274446;28;20033;-90
2024/01/08 08:30:24;;;;;;;5.93;1.33;;;3.20;1.00;;;;;;6271570;28;20007;-82
2024/01/08 08:33:26;;;;;;;6.25;1.30;;;3.30;1.00;;;;;;6272600;28;20053;-84
2024/01/08 08:36:28;;;;;;;11.93;1.77;;;3.30;1.00;;;;;;6273462;28;20127;-87
2024/01/08 08:39:29;;;;;;;4.72;1.20;;;3.30;1.00;;;;;;6284358;28;20057;-86
2024/01/08 08:42:34;;;;;;;6.47;1.10;;;3.30;1.00;;;;;;6283431;28;20370;-86
2024/01/08 08:45:35;;;;;;;7.57;1.42;;;3.30;1.00;;;;;;6261314;28;20264;-85
2024/01/08 08:48:37;;;;;;;5.90;1.48;;;3.30;1.00;;;;;;6285999;28;20059;-85
2024/01/08 08:51:39;;;;;;;6.35;1.73;;;3.30;1.00;;;;;;6281068;28;20080;-85
2024/01/08 08:54:41;;;;;;;5.50;1.40;;;3.30;1.00;;;;;;6279909;28;20057;-85
2024/01/08 08:57:42;;;;;;;4.05;1.33;;;3.30;1.00;;;;;;6279213;28;20120;-85
2024/01/08 09:00:49;;;;;;;4.95;1.40;;;3.30;1.00;;;;;;6253889;28;20049;-89
2024/01/08 09:03:52;;;;;;;4.05;1.40;;;3.30;1.00;;;;;;6285818;28;20077;-83
2024/01/08 09:06:54;;;;;;;6.38;1.48;;;3.30;1.00;;;;;;6272225;28;20053;-89
2024/01/08 09:09:59;;;;;;;4.78;1.20;;;3.30;1.00;;;;;;6278872;28;20059;-84
2024/01/08 09:13:01;;;;;;;5.85;1.48;;;3.20;1.00;;;;;;6274474;28;20640;-84
2024/01/08 09:16:03;;;;;;;5.18;1.20;;;3.30;1.00;;;;;;6253316;28;20539;-82
2024/01/08 09:19:05;;;;;;;9.93;1.40;;;3.30;1.00;;;;;;6248301;28;20420;-84
2024/01/08 09:22:07;;;;;;;7.57;1.77;;;3.30;1.00;;;;;;6271160;28;20069;-85
2024/01/08 09:25:08;;;;;;;5.68;1.95;;;3.30;1.00;;;;;;6271973;28;20053;-82
2024/01/08 09:28:10;;;;;;;6.57;1.60;;;3.40;1.00;;;;;;6272153;28;20052;-88
2024/01/08 09:31:12;;;;;;;4.30;1.45;;;3.30;1.00;;;;;;6297429;28;20053;-83
2024/01/08 09:34:14;;;;;;;4.53;1.35;;;3.40;1.00;;;;;;6230458;28;20478;-83
2024/01/08 09:37:16;;;;;;;5.80;1.58;;;3.50;1.00;;;;;;6271546;28;20087;-89
2024/01/08 09:40:18;;;;;;;7.43;1.70;;;3.40;1.00;;;;;;6276522;28;20143;-83
2024/01/08 09:43:19;;;;;;;6.60;1.58;;;3.40;1.00;;;;;;6266180;28;20055;-84
2024/01/08 09:46:21;;;;;;;8.00;1.70;;;3.50;1.00;;;;;;6286918;28;20064;-86
2024/01/08 09:49:23;;;;;;;6.25;1.80;;;3.50;1.00;;;;;;6246047;28;20164;-80
2024/01/08 09:52:24;;;;;;;8.95;1.55;;;3.50;1.00;;;;;;6271587;28;20602;-84
2024/01/08 09:55:36;;;;;;;5.30;1.55;;;3.50;1.00;;;;;;6245805;28;20107;-83
2024/01/08 09:58:38;;;;;;;7.35;1.88;;;3.60;1.00;;;;;;6265011;28;20068;-82
2024/01/08 10:01:40;;;;;;;9.52;1.65;;;3.70;1.00;;;;;;6270158;28;20115;-86
2024/01/08 10:04:44;;;;;;;7.13;1.77;;;3.70;1.00;;;;;;6250702;28;20045;-83
2024/01/08 10:07:45;;;;;;;7.78;1.65;;;3.70;1.00;;;;;;6258941;28;20138;-81
2024/01/08 10:10:47;;;;;;;6.57;1.70;;;3.70;1.00;;;;;;6270751;28;20195;-84
2024/01/08 10:13:50;;;;;;;7.13;1.80;;;3.70;1.00;;;;;;6262860;28;20711;-81
2024/01/08 10:16:52;;;;;;;10.88;2.05;;;3.70;1.00;;;;;;6275154;28;20165;-83
2024/01/08 10:20:02;;;;;;;7.50;1.60;;;3.70;1.00;;;;;;6270194;28;20057;-84
2024/01/08 10:23:05;;;;;;;6.28;2.00;;;3.80;1.00;;;;;;6270653;28;20060;-81
2024/01/08 10:26:07;;;;;;;9.15;2.55;;;3.80;1.00;;;;;;6244929;28;20200;-81
2024/01/08 10:29:09;;;;;;;7.07;1.80;;;3.80;1.00;;;;;;6264175;28;20053;-89
2024/01/08 10:32:10;;;;;;;8.80;2.25;;;3.80;1.00;;;;;;6274183;28;20052;-89
2024/01/08 10:35:13;;;;;;;7.65;1.80;;;3.80;1.00;;;;;;6273060;28;20064;-87
2024/01/08 10:38:14;;;;;;;9.35;2.10;;;3.80;3.70;;;;;;6270257;28;20065;-85
2024/01/08 10:41:16;;;;;;;10.93;2.47;;;3.70;14.60;;;;;;6248064;28;20127;-94
2024/01/08 10:44:18;;;;;;;7.82;2.42;;;3.20;84.90;;;;;;6256543;28;20133;-90
2024/01/08 10:47:20;;;;;;;7.35;2.35;;;2.70;97.40;;;;;;6270862;28;20049;-85
2024/01/08 10:50:23;;;;;;;9.77;2.67;;;2.50;99.90;;;;;;6269849;28;20053;-87
2024/01/08 10:53:25;;;;;;;10.45;2.60;;;2.40;99.90;;;;;;6269366;28;20061;-83
2024/01/08 10:56:27;;;;;;;10.73;2.60;;;2.40;99.90;;;;;;6267911;28;20056;-88
2024/01/08 10:59:29;;;;;;;8.88;3.03;;;2.50;99.90;;;;;;6260749;28;20059;-85
2024/01/08 11:02:37;;;;;;;8.43;2.65;;;2.60;99.90;;;;;;6269491;28;20053;-87
2024/01/08 11:05:39;;;;;;;10.82;3.08;;;2.80;99.90;;;;;;6227659;28;20059;-81
2024/01/08 11:08:42;;;;;;;13.15;2.80;;;2.90;98.90;;;;;;6261101;28;20057;-85
2024/01/08 11:11:44;;;;;;;11.48;3.10;;;2.90;96.20;;;;;;6227517;28;20085;-88
2024/01/08 11:14:46;;;;;;;8.32;2.90;;;2.90;96.00;;;;;;6268142;28;20189;-88
2024/01/08 11:17:47;;;;;;;10.18;2.80;;;3.00;96.60;;;;;;6244597;28;20060;-82
2024/01/08 11:20:50;;;;;;;9.55;3.33;;;3.00;94.60;;;;;;6245070;28;20557;-82
2024/01/08 11:23:53;;;;;;;6.47;2.30;;;3.10;94.80;;;;;;6243792;28;20107;-84
2024/01/08 11:26:55;;;;;;;9.38;2.97;;;3.20;94.30;;;;;;6243543;28;20065;-84
2024/01/08 11:29:57;;;;;;;10.38;2.97;;;3.30;91.70;;;;;;6240591;28;20053;-83
2024/01/08 11:33:04;;;;;;;9.27;2.88;;;3.40;87.30;;;;;;6241920;28;20053;-86
2024/01/08 11:36:06;;;;;;;7.82;2.63;;;3.50;84.10;;;;;;6243879;28;20214;-82
2024/01/08 11:39:07;;;;;;;5.30;2.47;;;3.60;64.00;;;;;;6241547;28;20049;-83
2024/01/08 11:42:09;;;;;;;8.23;2.58;;;3.80;66.00;;;;;;6241583;28;20054;-83
2024/01/08 11:45:11;;;;;;;5.32;1.80;;;3.90;30.10;;;;;;6242258;28;20049;-82
2024/01/08 11:48:12;;;;;;;7.00;2.20;;;4.90;22.00;;;;;;6243382;28;20319;-86
2024/01/08 11:51:14;;;;;;;8.27;2.25;;;4.70;1.00;;;;;;6243394;28;20284;-84
2024/01/08 11:54:18;;;;;;;4.70;1.98;;;4.40;1.00;;;;;;6242589;28;20048;-83
2024/01/08 11:57:20;;;;;;;5.43;2.05;;;4.20;1.00;;;;;;6225536;28;20067;-82
2024/01/08 12:00:23;;;;;;;7.90;2.38;;;4.10;1.00;;;;;;6223971;28;20049;-85
2024/01/08 12:03:24;;;;;;;4.18;1.83;;;4.00;1.00;;;;;;6218200;28;20058;-87
2024/01/08 12:06:27;;;;;;;6.60;2.08;;;4.00;1.00;;;;;;6243080;28;20083;-88
2024/01/08 12:09:28;;;;;;;4.72;2.20;;;4.00;1.00;;;;;;6244656;28;20049;-86
2024/01/08 12:12:30;;;;;;;5.63;2.10;;;4.00;1.00;;;;;;6227106;28;20065;-92
2024/01/08 12:15:32;;;;;;;5.72;1.90;;;4.00;1.00;;;;;;6235749;28;20060;-88
2024/01/08 12:18:33;;;;;;;6.55;1.98;;;4.00;1.00;;;;;;6251278;28;20524;-85
2024/01/08 12:21:35;;;;;;;6.47;2.03;;;4.10;1.00;;;;;;6267751;28;20053;-82
2024/01/08 12:24:49;;;;;;;7.68;2.22;;;3.90;1.00;;;;;;6248780;28;20052;-83
2024/01/08 12:27:50;;;;;;;5.10;1.85;;;4.00;1.00;;;;;;6268934;28;20320;-87
2024/01/08 12:30:52;;;;;;;5.35;2.10;;;4.00;1.00;;;;;;6267372;28;20056;-85
2024/01/08 12:33:55;;;;;;;5.97;2.10;;;4.10;1.00;;;;;;6267832;28;20052;-86
2024/01/08 12:36:56;;;;;;;6.78;2.35;;;4.00;1.00;;;;;;6270933;28;20064;-89
2024/01/08 12:39:58;;;;;;;4.55;1.90;;;3.90;1.00;;;;;;6267248;28;20053;-86
2024/01/08 12:43:00;;;;;;;5.70;2.10;;;3.90;1.00;;;;;;6269555;28;20129;-86
2024/01/08 12:46:03;;;;;;;4.78;2.10;;;4.00;1.00;;;;;;6253614;28;20095;-84
2024/01/08 12:49:05;;;;;;;6.20;2.10;;;4.00;1.10;;;;;;6246885;28;20053;-85
2024/01/08 12:52:06;;;;;;;5.97;1.92;;;4.10;1.00;;;;;;6271062;28;20787;-85
2024/01/08 12:55:12;;;;;;;4.88;1.67;;;4.10;1.00;;;;;;6262955;28;20139;-87
2024/01/08 12:58:13;;;;;;;6.10;2.38;;;4.00;1.00;;;;;;6270626;28;20041;-87
2024/01/08 13:01:15;;;;;;;6.70;2.30;;;3.80;1.00;;;;;;6290964;28;20458;-83
2024/01/08 13:04:17;;;;;;;9.57;2.45;;;3.60;4.90;;;;;;6255479;28;20488;-83
2024/01/08 13:07:20;;;;;;;8.05;2.72;;;3.40;14.60;;;;;;6272261;28;20049;-84
2024/01/08 13:10:24;;;;;;;7.43;2.67;;;3.30;30.20;;;;;;6267020;28;20061;-92
2024/01/08 13:13:40;;;;;;;7.60;2.30;;;3.20;25.30;;;;;;6267636;28;20092;-88
2024/01/08 13:16:42;;;;;;;6.85;2.47;;;3.20;36.70;;;;;;6257436;28;20060;-89
2024/01/08 13:19:44;;;;;;;5.68;2.53;;;3.20;37.60;;;;;;6247960;28;20059;-85
2024/01/08 13:22:46;;;;;;;6.35;2.80;;;3.10;47.80;;;;;;6274481;28;20144;-88
2024/01/08 13:25:48;;;;;;;7.78;2.95;;;3.10;53.90;;;;;;6267085;28;20416;-89
2024/01/08 13:28:50;;;;;;;8.55;2.70;;;2.90;69.30;;;;;;6272279;28;20049;-89
2024/01/08 13:31:51;;;;;;;9.00;2.80;;;2.90;72.00;;;;;;6247537;28;20072;-91
2024/01/08 13:34:53;;;;;;;5.30;2.45;;;2.80;71.50;;;;;;6272377;28;20142;-84
2024/01/08 13:37:55;;;;;;;9.27;2.63;;;2.80;76.30;;;;;;6264909;28;20055;-91
2024/01/08 13:40:57;;;;;;;8.30;2.88;;;2.80;76.30;;;;;;6258199;28;20063;-85
2024/01/08 13:43:59;;;;;;;10.95;3.00;;;2.80;81.10;;;;;;6272246;28;20057;-85
2024/01/08 13:47:00;;;;;;;8.65;3.45;;;2.70;84.00;;;;;;6273791;28;20366;-83
2024/01/08 13:50:04;;;;;;;7.65;3.00;;;2.80;90.00;;;;;;6271894;28;20057;-88
2024/01/08 13:53:06;;;;;;;8.98;3.10;;;2.70;90.50;;;;;;6253434;28;20049;-84
2024/01/08 13:56:07;;;;;;;10.13;2.85;;;2.80;91.50;;;;;;6271461;28;20477;-84
2024/01/08 13:59:09;;;;;;;8.70;2.80;;;2.90;92.20;;;;;;6269695;28;20052;-85
2024/01/08 14:02:11;;;;;;;10.88;2.95;;;2.90;90.50;;;;;;6271551;28;20064;-87
2024/01/08 14:05:15;;;;;;;7.80;2.58;;;3.00;85.50;;;;;;6254913;28;20059;-85
2024/01/08 14:08:17;;;;;;;7.25;2.50;;;3.00;77.90;;;;;;6272556;28;20053;-88
2024/01/08 14:11:19;;;;;;;8.57;2.50;;;3.10;76.20;;;;;;6274918;28;20666;-85
2024/01/08 14:14:20;;;;;;;6.43;2.17;;;3.10;70.70;;;;;;6272721;28;20075;-85
2024/01/08 14:17:22;;;;;;;7.05;2.38;;;3.20;68.10;;;;;;6268244;28;20049;-86
2024/01/08 14:20:25;;;;;;;9.77;2.50;;;3.20;57.70;;;;;;6228839;28;20049;-85
2024/01/08 14:23:26;;;;;;;9.02;2.50;;;3.40;60.60;;;;;;6253571;28;20064;-86
2024/01/08 14:26:28;;;;;;;6.22;2.40;;;3.60;50.90;;;;;;6272074;28;20048;-82
2024/01/08 14:29:30;;;;;;;8.07;2.20;;;3.70;35.40;;;;;;6243926;28;20109;-87
2024/01/08 14:32:32;;;;;;;6.82;2.15;;;3.70;29.60;;;;;;6246884;28;20578;-81
2024/01/08 14:35:36;;;;;;;11.48;2.50;;;3.50;15.80;;;;;;6271972;28;20056;-82
2024/01/08 14:38:38;;;;;;;6.20;1.88;;;3.40;15.90;;;;;;6251005;28;20045;-82
2024/01/08 14:41:40;;;;;;;6.00;1.98;;;3.20;8.30;;;;;;6246993;28;20428;-83
2024/01/08 14:44:42;;;;;;;6.32;2.20;;;3.20;3.30;;;;;;6241875;28;20053;-89
2024/01/08 14:47:44;;;;;;;7.35;2.50;;;3.10;5.40;;;;;;6223456;28;20041;-84
2024/01/08 14:50:45;;;;;;;7.85;2.38;;;3.00;15.30;;;;;;6221532;28;20501;-90
2024/01/08 14:53:47;;;;;;;6.78;2.00;;;3.00;14.30;;;;;;6222675;28;20062;-84
2024/01/08 14:56:49;;;;;;;7.43;2.08;;;2.90;12.30;;;;;;6269121;28;20063;-83
2024/01/08 14:59:51;;;;;;;4.25;1.40;;;2.80;9.40;;;;;;6244888;28;20049;-83
2024/01/08 15:02:54;;;;;;;7.78;2.05;;;2.70;9.90;;;;;;6277261;28;20056;-88
2024/01/08 15:05:56;;;;;;;13.00;2.08;;;2.70;10.70;;;;;;6234664;28;20413;-87
2024/01/08 15:08:58;;;;;;;8.98;1.88;;;2.70;12.20;;;;;;6252652;28;20591;-86
2024/01/08 15:12:00;;;;;;;7.32;1.63;;;2.70;9.60;;;;;;6246718;28;20060;-92
2024/01/08 15:15:03;;;;;;;5.35;1.60;;;2.70;11.00;;;;;;6272367;28;20049;-90
2024/01/08 15:18:05;;;;;;;8.32;1.90;;;2.60;7.90;;;;;;6258566;28;20061;-81
2024/01/08 15:21:07;;;;;;;7.90;1.65;;;2.60;6.40;;;;;;6251283;28;20107;-87
2024/01/08 15:24:10;;;;;;;6.13;1.88;;;2.60;4.60;;;;;;6242390;28;20140;-84
2024/01/08 15:27:12;;;;;;;9.00;1.70;;;2.60;10.80;;;;;;6254093;28;20393;-84
2024/01/08 15:30:14;;;;;;;6.18;1.70;;;2.50;9.50;;;;;;6243130;28;20088;-87
2024/01/08 15:33:16;;;;;;;7.18;2.05;;;2.60;14.10;;;;;;6254451;28;20045;-88
2024/01/08 15:36:19;;;;;;;7.68;2.20;;;2.50;12.00;;;;;;6251454;28;20405;-89
2024/01/08 15:39:21;;;;;;;6.07;1.80;;;2.40;13.90;;;;;;6264381;28;20510;-82
2024/01/08 15:42:22;;;;;;;5.50;1.90;;;2.40;21.10;;;;;;6246110;28;20420;-86
2024/01/08 15:45:25;;;;;;;9.35;1.70;;;2.40;25.30;;;;;;6249959;28;20059;-85
2024/01/08 15:48:27;;;;;;;8.00;1.90;;;2.30;31.40;;;;;;6257318;28;20075;-86
2024/01/08 15:51:29;;;;;;;5.90;1.55;;;2.30;32.30;;;;;;6232015;28;20058;-90
2024/01/08 15:54:31;;;;;;;6.05;1.92;;;2.30;37.20;;;;;;6268262;28;20052;-82
2024/01/08 15:57:33;;;;;;;6.40;1.95;;;2.20;43.90;;;;;;6252645;28;20049;-81
2024/01/08 16:00:34;;;;;;;10.00;2.05;;;2.20;43.90;;;;;;6272418;28;20496;-83
2024/01/08 16:03:36;;;;;;;8.35;2.10;;;2.20;43.90;;;;;;6254184;28;20158;-86
2024/01/08 16:06:38;;;;;;;9.63;2.00;;;2.20;47.20;;;;;;6272837;28;20057;-84